Time;durP1;ratioP1;P1;durP2;ratioP2;P2;SDS_P1;SDS_P2;PMS_P1;PMS_P2;Temp;Humidity;BMP_temperature;BMP_pressure;BME280_temperature;BME280_humidity;BME280_pressure;Samples;Min_cycle;Max_cycle;Signal;HPM_P1;HPM_P2
2023/12/16 00:02:04;;;;;;;18.63;4.40;;;8.70;99.90;;;;;;5003138;28;20810;-42
2023/12/16 00:04:30;;;;;;;13.43;4.20;;;8.70;99.90;;;;;;5000453;28;20738;-42
2023/12/16 00:06:56;;;;;;;15.75;4.70;;;8.70;99.90;;;;;;5001736;28;20297;-43
2023/12/16 00:09:22;;;;;;;14.82;4.72;;;8.70;99.90;;;;;;5001553;28;20185;-40
2023/12/16 00:11:48;;;;;;;15.70;4.35;;;8.70;99.90;;;;;;4984648;28;20200;-41
2023/12/16 00:14:13;;;;;;;15.50;4.05;;;8.70;99.90;;;;;;5000159;28;20185;-41
2023/12/16 00:16:45;;;;;;;14.30;3.92;;;8.70;99.90;;;;;;5001322;28;20592;-42
2023/12/16 00:19:11;;;;;;;15.45;4.03;;;8.70;99.90;;;;;;5002510;28;20193;-44
2023/12/16 00:21:37;;;;;;;11.57;3.42;;;8.70;99.90;;;;;;5001575;28;20189;-40
2023/12/16 00:24:05;;;;;;;14.50;3.75;;;8.60;99.90;;;;;;5002015;28;20564;-45
2023/12/16 00:26:31;;;;;;;15.70;3.70;;;8.60;99.90;;;;;;5000157;28;20232;-46
2023/12/16 00:28:57;;;;;;;11.40;3.40;;;8.50;99.90;;;;;;5001628;28;20271;-39
2023/12/16 00:31:22;;;;;;;12.68;3.70;;;8.50;99.90;;;;;;5001248;28;20197;-42
2023/12/16 00:33:48;;;;;;;13.98;3.88;;;8.40;99.90;;;;;;5001437;28;20181;-41
2023/12/16 00:36:14;;;;;;;11.23;3.33;;;8.40;99.90;;;;;;5000950;28;20188;-41
2023/12/16 00:38:40;;;;;;;11.10;3.53;;;8.30;99.90;;;;;;5001186;28;20188;-43
2023/12/16 00:41:07;;;;;;;12.50;3.95;;;8.30;99.90;;;;;;5001105;28;20192;-41
2023/12/16 00:43:33;;;;;;;11.52;3.50;;;8.30;99.90;;;;;;5002350;28;20192;-43
2023/12/16 00:45:59;;;;;;;11.00;3.70;;;8.30;99.90;;;;;;5001095;28;20216;-43
2023/12/16 00:48:25;;;;;;;11.73;3.92;;;8.20;99.90;;;;;;5016494;28;20288;-41
2023/12/16 00:50:51;;;;;;;15.82;4.07;;;8.20;99.90;;;;;;5002074;28;20275;-44
2023/12/16 00:53:17;;;;;;;12.27;3.83;;;8.20;99.90;;;;;;5005664;28;20667;-43
2023/12/16 00:55:43;;;;;;;12.85;3.95;;;8.20;99.90;;;;;;5005374;28;20212;-42
2023/12/16 00:58:09;;;;;;;10.07;3.58;;;8.20;99.90;;;;;;5019452;28;20591;-42
2023/12/16 01:00:35;;;;;;;9.38;3.65;;;8.10;99.90;;;;;;5005205;28;20181;-39
2023/12/16 01:03:01;;;;;;;12.10;3.70;;;8.10;99.90;;;;;;5005247;28;20800;-42
2023/12/16 01:05:27;;;;;;;10.35;3.55;;;8.10;99.90;;;;;;5004323;28;20279;-38
2023/12/16 01:07:52;;;;;;;8.55;3.10;;;8.00;99.90;;;;;;5004819;28;20219;-40
2023/12/16 01:10:18;;;;;;;11.63;3.25;;;8.00;99.90;;;;;;5005220;28;20189;-43
2023/12/16 01:12:45;;;;;;;9.93;3.30;;;8.00;99.90;;;;;;5004245;28;20820;-42
2023/12/16 01:15:11;;;;;;;12.02;3.63;;;8.00;99.90;;;;;;5019325;28;20185;-40
2023/12/16 01:17:37;;;;;;;10.95;3.38;;;7.90;99.90;;;;;;5004847;28;20862;-40
2023/12/16 01:20:04;;;;;;;15.30;4.03;;;8.00;99.90;;;;;;5003981;28;20185;-43
2023/12/16 01:22:30;;;;;;;14.32;3.40;;;7.90;99.90;;;;;;5004308;28;20287;-42
2023/12/16 01:24:56;;;;;;;17.65;3.50;;;7.90;99.90;;;;;;5003950;28;20284;-41
2023/12/16 01:27:22;;;;;;;12.48;3.10;;;7.90;99.90;;;;;;5004481;28;20262;-41
2023/12/16 01:29:47;;;;;;;12.50;3.08;;;7.90;99.90;;;;;;5003999;28;20188;-40
2023/12/16 01:32:13;;;;;;;16.08;3.30;;;7.90;99.90;;;;;;5004373;28;20184;-40
2023/12/16 01:34:39;;;;;;;15.55;3.65;;;7.90;99.90;;;;;;5004345;28;20222;-42
2023/12/16 01:37:05;;;;;;;12.95;3.67;;;7.90;99.90;;;;;;5005395;28;20319;-43
2023/12/16 01:39:31;;;;;;;11.25;2.97;;;7.90;99.90;;;;;;5003766;28;20192;-46
2023/12/16 01:41:57;;;;;;;8.73;3.20;;;7.90;99.90;;;;;;5003955;28;20239;-42
2023/12/16 01:44:23;;;;;;;10.38;2.88;;;7.90;99.90;;;;;;5004391;28;20247;-40
2023/12/16 01:46:50;;;;;;;9.63;3.00;;;7.90;99.90;;;;;;5019266;28;20696;-40
2023/12/16 01:49:17;;;;;;;11.13;3.00;;;7.90;99.90;;;;;;5018342;28;20266;-41
2023/12/16 01:51:43;;;;;;;10.55;2.83;;;7.90;99.90;;;;;;4988210;28;20192;-43
2023/12/16 01:54:11;;;;;;;12.15;3.03;;;7.80;99.90;;;;;;5004794;28;20193;-41
2023/12/16 01:56:38;;;;;;;13.60;3.00;;;7.80;99.90;;;;;;5003439;28;20189;-41
2023/12/16 01:59:05;;;;;;;13.27;3.20;;;7.90;99.90;;;;;;5003857;28;20196;-44
2023/12/16 02:01:32;;;;;;;11.13;2.58;;;7.80;99.90;;;;;;5003894;28;20292;-41
2023/12/16 02:03:58;;;;;;;9.20;2.58;;;7.80;99.90;;;;;;5003549;28;20196;-42
2023/12/16 02:06:25;;;;;;;13.27;3.28;;;7.80;99.90;;;;;;5008183;28;20311;-40
2023/12/16 02:08:51;;;;;;;13.20;3.17;;;7.80;99.90;;;;;;5003959;28;20598;-41
2023/12/16 02:11:17;;;;;;;15.77;2.83;;;7.80;99.90;;;;;;5004444;28;20689;-41
2023/12/16 02:13:43;;;;;;;12.70;2.78;;;7.80;99.90;;;;;;5003269;28;20326;-40
2023/12/16 02:16:12;;;;;;;12.52;2.92;;;7.80;99.90;;;;;;5003009;28;20273;-43
2023/12/16 02:18:38;;;;;;;13.63;2.63;;;7.80;99.90;;;;;;5003246;28;20243;-41
2023/12/16 02:21:04;;;;;;;11.70;2.85;;;7.80;99.90;;;;;;5003479;28;20255;-38
2023/12/16 02:23:30;;;;;;;10.40;2.50;;;7.80;99.90;;;;;;5000933;28;20192;-40
2023/12/16 02:25:56;;;;;;;10.57;2.60;;;7.70;99.90;;;;;;5003501;28;20212;-42
2023/12/16 02:28:22;;;;;;;10.52;2.83;;;7.70;99.90;;;;;;5003286;28;20683;-42
2023/12/16 02:30:48;;;;;;;9.15;2.42;;;7.70;99.90;;;;;;5003081;28;20192;-41
2023/12/16 02:33:13;;;;;;;9.75;2.72;;;7.70;99.90;;;;;;5006806;28;20204;-44
2023/12/16 02:35:39;;;;;;;10.32;3.08;;;7.60;99.90;;;;;;5001262;28;20195;-44
2023/12/16 02:38:05;;;;;;;12.10;2.85;;;7.60;99.90;;;;;;5002408;28;20181;-42
2023/12/16 02:40:31;;;;;;;10.70;2.70;;;7.60;99.90;;;;;;5003633;28;20258;-44
2023/12/16 02:42:57;;;;;;;18.10;3.03;;;7.60;99.90;;;;;;5018220;28;20192;-40
2023/12/16 02:45:24;;;;;;;12.73;3.08;;;7.60;99.90;;;;;;5018418;28;20200;-42
2023/12/16 02:47:50;;;;;;;15.77;2.92;;;7.50;99.90;;;;;;5002816;28;20212;-43
2023/12/16 02:50:16;;;;;;;10.05;2.75;;;7.60;99.90;;;;;;5002445;28;20187;-39
2023/12/16 02:52:42;;;;;;;16.45;2.72;;;7.50;99.90;;;;;;5000124;28;20188;-46
2023/12/16 02:55:08;;;;;;;17.52;3.30;;;7.50;99.90;;;;;;5003092;28;20188;-43
2023/12/16 02:57:34;;;;;;;14.60;3.08;;;7.50;99.90;;;;;;5001777;28;20192;-39
2023/12/16 03:00:00;;;;;;;9.70;2.92;;;7.50;99.90;;;;;;5002753;28;20612;-42
2023/12/16 03:02:25;;;;;;;12.10;3.00;;;7.50;99.90;;;;;;5002501;28;20188;-39
2023/12/16 03:04:52;;;;;;;13.30;2.95;;;7.50;99.90;;;;;;5000940;28;20223;-43
2023/12/16 03:07:18;;;;;;;11.93;2.53;;;7.50;99.90;;;;;;5002193;28;20215;-41
2023/12/16 03:09:43;;;;;;;10.60;3.25;;;7.50;99.90;;;;;;5002538;28;20180;-41
2023/12/16 03:12:09;;;;;;;13.30;2.60;;;7.50;99.90;;;;;;5001993;28;20267;-42
2023/12/16 03:14:37;;;;;;;11.55;2.78;;;7.50;99.90;;;;;;5001946;28;20220;-41
2023/12/16 03:17:03;;;;;;;12.60;3.00;;;7.50;99.90;;;;;;5002724;28;20232;-40
2023/12/16 03:19:30;;;;;;;17.70;3.20;;;7.40;99.90;;;;;;5002434;28;20196;-41
2023/12/16 03:21:56;;;;;;;13.05;2.83;;;7.40;99.90;;;;;;5002385;28;20188;-41
2023/12/16 03:24:22;;;;;;;16.90;3.40;;;7.40;99.90;;;;;;5002482;28;21068;-40
2023/12/16 03:26:48;;;;;;;14.05;2.92;;;7.40;99.90;;;;;;5001279;28;20228;-42
2023/12/16 03:29:14;;;;;;;20.33;3.80;;;7.40;99.90;;;;;;5002200;28;20197;-46
2023/12/16 03:31:40;;;;;;;14.70;3.50;;;7.40;99.90;;;;;;5003107;28;20189;-42
2023/12/16 03:34:05;;;;;;;15.30;3.17;;;7.30;99.90;;;;;;5001450;28;20196;-41
2023/12/16 03:36:31;;;;;;;13.15;3.40;;;7.40;99.90;;;;;;5002101;28;22172;-42
2023/12/16 03:38:57;;;;;;;15.35;3.45;;;7.30;99.90;;;;;;5003098;28;20191;-43
2023/12/16 03:41:23;;;;;;;13.90;3.60;;;7.30;99.90;;;;;;5002351;28;20200;-43
2023/12/16 03:43:50;;;;;;;15.48;3.78;;;7.30;99.90;;;;;;5002145;28;20602;-42
2023/12/16 03:46:17;;;;;;;24.02;3.63;;;7.30;99.90;;;;;;5002318;28;20247;-44
2023/12/16 03:48:43;;;;;;;16.08;3.35;;;7.30;99.90;;;;;;5002231;28;20180;-42
2023/12/16 03:51:09;;;;;;;19.45;3.20;;;7.20;99.90;;;;;;4988684;28;20188;-40
2023/12/16 03:53:35;;;;;;;17.13;3.30;;;7.20;99.90;;;;;;5001907;28;20212;-41
2023/12/16 03:56:01;;;;;;;18.05;3.83;;;7.20;99.90;;;;;;4989880;28;20243;-41
2023/12/16 03:58:27;;;;;;;17.92;3.40;;;7.20;99.90;;;;;;5002033;28;20196;-40
2023/12/16 04:00:53;;;;;;;15.30;3.30;;;7.20;99.90;;;;;;5002475;28;20188;-42
2023/12/16 04:03:19;;;;;;;19.48;3.50;;;7.10;99.90;;;;;;5003938;28;20192;-41
2023/12/16 04:05:45;;;;;;;16.90;3.30;;;7.10;99.90;;;;;;5001784;28;20196;-43
2023/12/16 04:08:11;;;;;;;18.70;3.28;;;7.10;99.90;;;;;;5000830;28;20739;-45
2023/12/16 04:10:36;;;;;;;14.77;3.47;;;7.10;99.90;;;;;;5001868;28;20197;-41
2023/12/16 04:13:02;;;;;;;20.08;3.92;;;7.10;99.90;;;;;;5002171;28;20195;-41
2023/12/16 04:15:28;;;;;;;20.35;3.45;;;7.10;99.90;;;;;;5003987;28;20273;-42
2023/12/16 04:17:54;;;;;;;18.00;3.67;;;7.00;99.90;;;;;;5001243;28;20254;-43
2023/12/16 04:20:20;;;;;;;14.30;3.30;;;7.00;99.90;;;;;;5001602;28;20192;-40
2023/12/16 04:22:46;;;;;;;21.67;3.65;;;7.00;99.90;;;;;;5002604;28;20181;-43
2023/12/16 04:25:11;;;;;;;18.25;3.63;;;7.00;99.90;;;;;;5002187;28;20633;-42
2023/12/16 04:27:38;;;;;;;16.45;3.85;;;7.00;99.90;;;;;;5021050;28;20700;-39
2023/12/16 04:30:05;;;;;;;19.25;3.22;;;6.90;99.90;;;;;;4989151;28;20241;-41
2023/12/16 04:32:31;;;;;;;24.35;4.22;;;6.90;99.90;;;;;;5005732;28;21562;-40
2023/12/16 04:34:57;;;;;;;18.30;3.80;;;7.00;99.90;;;;;;5005336;28;20192;-40
2023/12/16 04:37:23;;;;;;;19.73;3.80;;;7.00;99.90;;;;;;5005306;28;20188;-43
2023/12/16 04:39:49;;;;;;;18.40;3.90;;;7.00;99.90;;;;;;5005982;28;20280;-43
2023/12/16 04:42:15;;;;;;;17.75;4.15;;;7.00;99.90;;;;;;5005618;28;20209;-41
2023/12/16 04:44:41;;;;;;;20.42;3.45;;;7.00;99.90;;;;;;5005130;28;20192;-41
2023/12/16 04:47:07;;;;;;;12.35;3.53;;;7.00;99.90;;;;;;5006380;28;20223;-39
2023/12/16 04:49:33;;;;;;;19.83;3.85;;;7.00;99.90;;;;;;4988648;28;20200;-45
2023/12/16 04:51:59;;;;;;;17.38;3.58;;;6.90;99.90;;;;;;5004866;28;20187;-43
2023/12/16 04:54:28;;;;;;;22.30;4.18;;;7.00;99.90;;;;;;5004126;28;20558;-39
2023/12/16 04:56:54;;;;;;;20.50;3.95;;;7.00;99.90;;;;;;5004910;28;20224;-40
2023/12/16 04:59:20;;;;;;;19.70;3.85;;;7.00;99.90;;;;;;5004841;28;20184;-44
2023/12/16 05:01:46;;;;;;;16.75;3.28;;;7.00;99.90;;;;;;5004558;28;20694;-44
2023/12/16 05:04:11;;;;;;;16.52;3.83;;;7.00;99.90;;;;;;5004758;28;20237;-43
2023/12/16 05:06:37;;;;;;;16.15;3.75;;;7.00;99.90;;;;;;5020900;28;20208;-40
2023/12/16 05:09:09;;;;;;;17.92;3.92;;;7.10;99.90;;;;;;5004947;28;20185;-40
2023/12/16 05:11:34;;;;;;;22.52;3.92;;;7.10;99.90;;;;;;4993314;28;20201;-44
2023/12/16 05:14:00;;;;;;;24.42;3.75;;;7.10;99.90;;;;;;5003657;28;20199;-44
2023/12/16 05:16:27;;;;;;;16.33;3.78;;;7.10;99.90;;;;;;5003845;28;20283;-42
2023/12/16 05:18:54;;;;;;;16.02;3.63;;;7.10;99.90;;;;;;5003312;28;20207;-42
2023/12/16 05:21:20;;;;;;;18.67;4.00;;;7.10;99.90;;;;;;5004107;28;20259;-41
2023/12/16 05:23:46;;;;;;;17.95;4.38;;;7.10;99.90;;;;;;4987726;28;20280;-44
2023/12/16 05:26:12;;;;;;;17.83;4.20;;;7.10;99.90;;;;;;5004489;28;20208;-41
2023/12/16 05:28:38;;;;;;;20.98;4.53;;;7.10;99.90;;;;;;5002286;28;20323;-39
2023/12/16 05:31:04;;;;;;;28.60;4.80;;;7.20;99.90;;;;;;5002703;28;20199;-39
2023/12/16 05:33:30;;;;;;;26.80;5.03;;;7.20;99.90;;;;;;5004146;28;20558;-42
2023/12/16 05:35:56;;;;;;;21.00;4.82;;;7.20;99.90;;;;;;5003904;28;20653;-43
2023/12/16 05:38:22;;;;;;;24.63;4.80;;;7.30;99.90;;;;;;4986436;28;20579;-40
2023/12/16 05:40:48;;;;;;;28.40;5.65;;;7.30;99.90;;;;;;5004080;28;20196;-41
2023/12/16 05:43:13;;;;;;;24.05;4.78;;;7.30;99.90;;;;;;5004223;28;20214;-43
2023/12/16 05:45:39;;;;;;;25.25;5.10;;;7.40;99.90;;;;;;5004019;28;20191;-47
2023/12/16 05:48:05;;;;;;;27.67;5.10;;;7.40;99.90;;;;;;5003626;28;20220;-42
2023/12/16 05:50:31;;;;;;;26.30;5.38;;;7.50;99.90;;;;;;5003184;28;20841;-41
2023/12/16 05:52:57;;;;;;;27.17;5.50;;;7.50;99.90;;;;;;5003325;28;20184;-42
2023/12/16 05:55:23;;;;;;;29.48;5.88;;;7.60;99.90;;;;;;5002648;28;20197;-40
2023/12/16 05:57:49;;;;;;;26.65;5.53;;;7.60;99.90;;;;;;5003894;28;20230;-40
2023/12/16 06:00:15;;;;;;;24.52;5.35;;;7.70;99.90;;;;;;5003935;28;20204;-41
2023/12/16 06:02:41;;;;;;;25.63;5.55;;;7.80;99.90;;;;;;5003335;28;20204;-41
2023/12/16 06:05:07;;;;;;;28.20;5.68;;;7.80;99.90;;;;;;5002040;28;20193;-41
2023/12/16 06:07:33;;;;;;;23.55;5.20;;;7.80;99.90;;;;;;5003296;28;20629;-44
2023/12/16 06:09:59;;;;;;;24.55;5.63;;;7.90;99.90;;;;;;5004532;28;20189;-44
2023/12/16 06:12:25;;;;;;;26.02;6.18;;;7.90;99.90;;;;;;5003810;28;20200;-41
2023/12/16 06:14:51;;;;;;;24.73;6.32;;;7.90;99.90;;;;;;5003691;28;20189;-43
2023/12/16 06:17:17;;;;;;;29.50;6.30;;;8.00;99.90;;;;;;5004365;28;20263;-40
2023/12/16 06:19:42;;;;;;;34.58;6.45;;;8.00;99.90;;;;;;5003623;28;20199;-41
2023/12/16 06:22:08;;;;;;;30.00;6.60;;;8.10;99.90;;;;;;5003189;28;20295;-39
2023/12/16 06:24:34;;;;;;;28.58;6.90;;;8.00;99.90;;;;;;5002056;28;20200;-44
2023/12/16 06:27:00;;;;;;;29.42;6.43;;;8.10;99.90;;;;;;5003630;28;20204;-46
2023/12/16 06:29:26;;;;;;;34.25;7.22;;;8.10;99.90;;;;;;5003480;28;20252;-43
2023/12/16 06:31:52;;;;;;;38.15;7.82;;;8.20;99.90;;;;;;5002434;28;20185;-40
2023/12/16 06:34:18;;;;;;;34.70;7.70;;;8.10;99.90;;;;;;5005504;28;20196;-42
2023/12/16 06:36:44;;;;;;;30.90;7.10;;;8.20;99.90;;;;;;5002922;28;20267;-39
2023/12/16 06:39:10;;;;;;;33.13;7.05;;;8.20;99.90;;;;;;5018369;28;20198;-43
2023/12/16 06:41:36;;;;;;;30.80;7.60;;;8.20;99.90;;;;;;5002411;28;20763;-40
2023/12/16 06:44:02;;;;;;;35.45;7.60;;;8.20;99.90;;;;;;5002963;28;20189;-40
2023/12/16 06:46:27;;;;;;;40.58;7.65;;;8.20;99.90;;;;;;5002354;28;20320;-42
2023/12/16 06:48:53;;;;;;;40.42;8.10;;;8.20;99.90;;;;;;5001839;28;20424;-42
2023/12/16 06:51:19;;;;;;;44.47;8.65;;;8.20;99.90;;;;;;5006051;28;20208;-40
2023/12/16 06:53:45;;;;;;;36.15;8.05;;;8.30;99.90;;;;;;5001026;28;20188;-41
2023/12/16 06:56:11;;;;;;;38.50;8.65;;;8.30;99.90;;;;;;5002497;28;20180;-41
2023/12/16 06:58:38;;;;;;;36.97;8.38;;;8.30;99.90;;;;;;5002360;28;20555;-41
2023/12/16 07:01:03;;;;;;;37.05;9.20;;;8.30;99.90;;;;;;5002816;28;20187;-44
2023/12/16 07:03:29;;;;;;;44.65;9.15;;;8.30;99.90;;;;;;5002986;28;20199;-40
2023/12/16 07:05:55;;;;;;;39.58;8.93;;;8.30;99.90;;;;;;4986768;28;20184;-44
2023/12/16 07:08:21;;;;;;;35.83;9.38;;;8.30;99.90;;;;;;5002618;28;20263;-47
2023/12/16 07:10:47;;;;;;;40.47;8.90;;;8.40;99.90;;;;;;5002648;28;20641;-43
2023/12/16 07:13:13;;;;;;;39.92;9.93;;;8.40;99.90;;;;;;5001396;28;20294;-45
2023/12/16 07:15:39;;;;;;;36.17;9.18;;;8.40;99.90;;;;;;5002433;28;20188;-43
2023/12/16 07:18:05;;;;;;;56.75;10.38;;;8.40;99.90;;;;;;5016550;28;20195;-41
2023/12/16 07:20:31;;;;;;;42.60;9.48;;;8.50;99.90;;;;;;4999333;28;20200;-41
2023/12/16 07:22:57;;;;;;;52.10;10.32;;;8.50;99.90;;;;;;5001883;28;20279;-40
2023/12/16 07:25:23;;;;;;;36.55;9.75;;;8.50;99.90;;;;;;5001778;28;21034;-43
2023/12/16 07:27:49;;;;;;;51.13;10.35;;;8.50;99.90;;;;;;5001583;28;20220;-41
2023/12/16 07:30:16;;;;;;;43.22;10.43;;;8.50;99.90;;;;;;4987576;28;20229;-41
2023/12/16 07:32:42;;;;;;;44.95;10.45;;;8.50;99.90;;;;;;5002322;28;20215;-43
2023/12/16 07:35:13;;;;;;;44.78;10.38;;;8.50;99.90;;;;;;5001922;28;20196;-45
2023/12/16 07:37:40;;;;;;;46.92;11.80;;;8.50;99.90;;;;;;5002581;28;20188;-43
2023/12/16 07:40:08;;;;;;;52.70;11.35;;;8.60;99.90;;;;;;5001902;28;20188;-40
2023/12/16 07:42:36;;;;;;;42.95;10.63;;;8.60;99.90;;;;;;5001568;28;20272;-40
2023/12/16 07:45:04;;;;;;;51.53;11.32;;;8.50;99.90;;;;;;5002451;28;20224;-41
2023/12/16 07:47:31;;;;;;;46.53;11.32;;;8.60;99.90;;;;;;5001832;28;20212;-42
2023/12/16 07:49:57;;;;;;;58.60;11.65;;;8.60;99.90;;;;;;5000986;28;20279;-42
2023/12/16 07:52:23;;;;;;;49.47;11.93;;;8.60;99.90;;;;;;5001157;28;20266;-42
2023/12/16 07:54:50;;;;;;;48.78;11.13;;;8.60;99.90;;;;;;5000383;28;20192;-46
2023/12/16 07:57:16;;;;;;;56.75;12.38;;;8.60;99.90;;;;;;4999963;28;20286;-42
2023/12/16 07:59:42;;;;;;;44.90;11.35;;;8.60;99.90;;;;;;5003978;28;20192;-40
2023/12/16 08:02:08;;;;;;;54.22;11.88;;;8.60;99.90;;;;;;5006562;28;20188;-42
2023/12/16 08:04:35;;;;;;;48.63;12.00;;;8.60;99.90;;;;;;5003630;28;20254;-42
2023/12/16 08:07:02;;;;;;;56.22;13.15;;;8.70;99.90;;;;;;5003970;28;20219;-40
2023/12/16 08:09:28;;;;;;;41.08;11.80;;;8.60;99.90;;;;;;5003174;28;20211;-38
2023/12/16 08:11:58;;;;;;;48.35;12.10;;;8.60;99.90;;;;;;5004392;28;20188;-44
2023/12/16 08:14:28;;;;;;;42.30;11.68;;;8.70;99.90;;;;;;5005037;28;20222;-45
2023/12/16 08:16:54;;;;;;;61.10;13.55;;;8.70;99.90;;;;;;5020502;28;20751;-41
2023/12/16 08:19:20;;;;;;;41.63;11.75;;;8.70;99.90;;;;;;5004464;28;20279;-42
2023/12/16 08:21:46;;;;;;;49.92;12.88;;;8.70;99.90;;;;;;5005422;28;20234;-45
2023/12/16 08:24:11;;;;;;;41.25;11.57;;;8.80;99.90;;;;;;5004959;28;20193;-40
2023/12/16 08:26:37;;;;;;;53.28;12.18;;;8.80;99.90;;;;;;5004370;28;20220;-39
2023/12/16 08:29:03;;;;;;;39.35;12.25;;;8.80;99.90;;;;;;5005069;28;21109;-44
2023/12/16 08:31:29;;;;;;;58.15;12.82;;;8.80;99.90;;;;;;5020249;28;20192;-41
2023/12/16 08:33:55;;;;;;;38.80;11.60;;;8.80;99.90;;;;;;5005241;28;20185;-43
2023/12/16 08:36:21;;;;;;;42.78;11.38;;;8.90;99.90;;;;;;5005166;28;20201;-41
2023/12/16 08:38:47;;;;;;;47.45;12.02;;;8.80;99.90;;;;;;5004365;28;20189;-42
2023/12/16 08:41:14;;;;;;;50.35;12.23;;;8.90;99.90;;;;;;5004260;28;20216;-43
2023/12/16 08:43:41;;;;;;;45.45;12.07;;;8.80;99.90;;;;;;4987380;28;20303;-43
2023/12/16 08:46:07;;;;;;;46.70;11.95;;;8.90;99.90;;;;;;5005237;28;20192;-41
2023/12/16 08:48:35;;;;;;;47.55;11.95;;;9.00;99.90;;;;;;5004423;28;20343;-42
2023/12/16 08:51:01;;;;;;;56.20;12.52;;;9.00;99.90;;;;;;5003809;28;20703;-39
2023/12/16 08:53:27;;;;;;;51.90;12.90;;;9.00;99.90;;;;;;5020261;28;20201;-38
2023/12/16 08:55:53;;;;;;;47.38;12.35;;;9.00;99.90;;;;;;5004126;28;20669;-44
2023/12/16 08:58:19;;;;;;;46.75;12.32;;;9.00;99.90;;;;;;5003095;28;20215;-42
2023/12/16 09:00:45;;;;;;;39.65;11.70;;;9.00;99.90;;;;;;4986143;28;20241;-43
2023/12/16 09:03:14;;;;;;;55.35;13.77;;;9.00;99.90;;;;;;5001308;28;21867;-39
2023/12/16 09:05:41;;;;;;;43.70;13.30;;;9.00;99.90;;;;;;5002821;28;20203;-42
2023/12/16 09:08:07;;;;;;;47.15;12.75;;;9.00;99.90;;;;;;5004465;28;20222;-41
2023/12/16 09:10:34;;;;;;;48.03;13.02;;;9.00;99.90;;;;;;5003191;28;20250;-42
2023/12/16 09:13:00;;;;;;;45.13;12.60;;;9.00;99.90;;;;;;5003237;28;20237;-40
2023/12/16 09:15:26;;;;;;;44.40;12.95;;;9.00;99.90;;;;;;5003336;28;20759;-45
2023/12/16 09:17:52;;;;;;;39.55;12.30;;;9.00;99.90;;;;;;5003154;28;20193;-46
2023/12/16 09:20:18;;;;;;;51.97;12.77;;;9.00;99.90;;;;;;5003072;28;20560;-47
2023/12/16 09:22:44;;;;;;;50.55;13.00;;;9.10;99.90;;;;;;5002873;28;20189;-42
2023/12/16 09:25:10;;;;;;;46.00;11.80;;;9.10;99.90;;;;;;5003950;28;20195;-40
2023/12/16 09:27:36;;;;;;;49.85;12.52;;;9.10;99.90;;;;;;5004539;28;20303;-40
2023/12/16 09:30:02;;;;;;;57.70;12.77;;;9.10;99.90;;;;;;5003457;28;20220;-41
2023/12/16 09:32:30;;;;;;;40.83;12.38;;;9.00;99.90;;;;;;5003606;28;20280;-42
2023/12/16 09:34:56;;;;;;;56.15;13.77;;;9.00;99.90;;;;;;5003841;28;20196;-42
2023/12/16 09:37:22;;;;;;;48.60;12.35;;;9.00;99.90;;;;;;5003436;28;20188;-43
2023/12/16 09:39:47;;;;;;;41.95;12.38;;;9.10;99.90;;;;;;5004271;28;20257;-41
2023/12/16 09:42:14;;;;;;;42.05;12.45;;;9.10;99.90;;;;;;5003498;28;20239;-41
2023/12/16 09:44:41;;;;;;;40.97;13.15;;;9.10;99.90;;;;;;5001198;28;20313;-42
2023/12/16 09:47:11;;;;;;;44.10;13.23;;;9.10;99.90;;;;;;5002927;28;20278;-42
2023/12/16 09:49:38;;;;;;;49.30;12.43;;;9.10;99.90;;;;;;5002854;28;20239;-41
2023/12/16 09:52:05;;;;;;;44.13;12.68;;;9.10;99.90;;;;;;5001591;28;20185;-41
2023/12/16 09:54:31;;;;;;;49.10;12.48;;;9.10;99.90;;;;;;5003380;28;20192;-44
2023/12/16 09:57:00;;;;;;;48.20;12.77;;;9.10;99.90;;;;;;5018584;28;20941;-42
2023/12/16 09:59:29;;;;;;;50.08;12.93;;;9.10;99.90;;;;;;5003096;28;20306;-42
2023/12/16 10:02:02;;;;;;;51.17;13.02;;;9.10;99.90;;;;;;5003736;28;20184;-41
2023/12/16 10:04:29;;;;;;;52.70;12.80;;;9.10;99.90;;;;;;5003467;28;20184;-39
2023/12/16 10:06:54;;;;;;;46.03;13.27;;;9.10;99.90;;;;;;5003308;28;20629;-44
2023/12/16 10:09:20;;;;;;;41.65;12.80;;;9.10;99.90;;;;;;5001372;28;20193;-40
2023/12/16 10:11:54;;;;;;;42.80;12.02;;;9.10;99.90;;;;;;5001559;28;20188;-39
2023/12/16 10:14:20;;;;;;;53.10;13.13;;;9.20;99.90;;;;;;5001420;28;20193;-41
2023/12/16 10:16:50;;;;;;;46.35;13.05;;;9.20;99.90;;;;;;5002573;28;20691;-40
2023/12/16 10:19:19;;;;;;;43.75;13.43;;;9.20;99.90;;;;;;5002522;28;20275;-40
2023/12/16 10:21:46;;;;;;;41.08;12.65;;;9.20;99.90;;;;;;5002403;28;20200;-46
2023/12/16 10:24:14;;;;;;;45.35;12.15;;;9.20;99.90;;;;;;5017756;28;20188;-40
2023/12/16 10:26:44;;;;;;;54.88;12.90;;;9.20;99.90;;;;;;5002816;28;20209;-44
2023/12/16 10:29:10;;;;;;;43.60;13.73;;;9.20;99.90;;;;;;5000897;28;20572;-42
2023/12/16 10:31:37;;;;;;;54.67;13.55;;;9.30;99.90;;;;;;5002978;28;20192;-45
2023/12/16 10:34:03;;;;;;;43.40;13.73;;;9.30;99.90;;;;;;5000937;28;20220;-42
2023/12/16 10:36:30;;;;;;;41.38;12.57;;;9.30;99.90;;;;;;5003158;28;20188;-42
2023/12/16 10:38:57;;;;;;;38.72;12.50;;;9.30;99.90;;;;;;5002148;28;21318;-41
2023/12/16 10:41:23;;;;;;;35.53;12.55;;;9.30;99.90;;;;;;5002627;28;20567;-43
2023/12/16 10:43:49;;;;;;;37.40;12.18;;;9.30;99.90;;;;;;5001302;28;20196;-42
2023/12/16 10:46:19;;;;;;;34.53;12.07;;;9.30;99.90;;;;;;5002304;28;20238;-42
2023/12/16 10:48:47;;;;;;;39.72;12.13;;;9.30;99.90;;;;;;5002619;28;20181;-42
2023/12/16 10:51:18;;;;;;;50.33;13.20;;;9.30;99.90;;;;;;5001842;28;21058;-40
2023/12/16 10:53:57;;;;;;;43.33;12.52;;;9.30;99.90;;;;;;5002830;28;20176;-43
2023/12/16 10:56:28;;;;;;;52.95;14.73;;;9.30;99.90;;;;;;5001979;28;20199;-46
2023/12/16 10:59:05;;;;;;;36.38;12.70;;;9.30;99.90;;;;;;5001255;28;20870;-43
2023/12/16 11:01:48;;;;;;;41.58;12.80;;;9.40;99.90;;;;;;5000174;28;20180;-44
2023/12/16 11:04:19;;;;;;;38.53;13.30;;;9.40;99.90;;;;;;5001038;28;20592;-42
2023/12/16 11:06:56;;;;;;;46.85;12.98;;;9.40;99.90;;;;;;5017529;28;20259;-43
2023/12/16 11:09:23;;;;;;;34.13;12.30;;;9.50;99.90;;;;;;5000076;28;20670;-41
2023/12/16 11:11:49;;;;;;;39.85;12.48;;;9.50;99.90;;;;;;5002009;28;20272;-45
2023/12/16 11:14:16;;;;;;;26.48;10.98;;;9.50;99.90;;;;;;5001543;28;20185;-42
2023/12/16 11:16:57;;;;;;;25.27;10.77;;;9.60;99.90;;;;;;5001707;28;20188;-43
2023/12/16 11:19:28;;;;;;;28.08;10.82;;;9.60;99.90;;;;;;5016473;28;20189;-42
2023/12/16 11:21:54;;;;;;;26.00;9.98;;;9.70;99.90;;;;;;5001347;28;20195;-43
2023/12/16 11:24:20;;;;;;;25.85;10.90;;;9.70;99.90;;;;;;5001877;28;20189;-41
2023/12/16 11:26:51;;;;;;;21.83;9.55;;;9.70;99.90;;;;;;5001378;28;20212;-42
2023/12/16 11:29:22;;;;;;;27.70;10.38;;;9.80;99.90;;;;;;5001472;28;20224;-39
2023/12/16 11:31:57;;;;;;;25.67;10.60;;;9.80;99.90;;;;;;5001324;28;20198;-44
2023/12/16 11:34:38;;;;;;;26.15;10.68;;;9.80;99.90;;;;;;5001749;28;20762;-43
2023/12/16 11:37:04;;;;;;;34.00;11.02;;;9.80;99.90;;;;;;5017015;28;20206;-40
2023/12/16 11:39:40;;;;;;;28.83;9.40;;;9.90;99.90;;;;;;5000491;28;20293;-42
2023/12/16 11:42:12;;;;;;;30.83;10.95;;;9.90;99.90;;;;;;5001315;28;20188;-41
2023/12/16 11:44:55;;;;;;;25.25;10.40;;;9.90;99.90;;;;;;5001822;28;20279;-42
2023/12/16 11:47:25;;;;;;;25.10;9.88;;;9.90;99.90;;;;;;5002219;28;20219;-41
2023/12/16 11:49:56;;;;;;;19.30;9.05;;;9.90;99.90;;;;;;5001541;28;20215;-41
2023/12/16 11:52:23;;;;;;;20.75;9.57;;;9.90;99.90;;;;;;5001664;28;20196;-44
2023/12/16 11:54:58;;;;;;;19.50;9.13;;;9.90;99.90;;;;;;4999747;28;20196;-41
2023/12/16 11:57:27;;;;;;;18.00;7.95;;;9.90;99.90;;;;;;5001474;28;20188;-42
2023/12/16 11:59:55;;;;;;;14.80;7.70;;;9.90;99.90;;;;;;5001588;28;20625;-45
2023/12/16 12:02:21;;;;;;;15.32;7.30;;;10.00;99.90;;;;;;5001548;28;20225;-39
2023/12/16 12:04:48;;;;;;;14.70;6.93;;;9.90;99.90;;;;;;5001094;28;20199;-40
2023/12/16 12:07:14;;;;;;;12.07;6.85;;;10.00;99.90;;;;;;4999736;28;20220;-43
2023/12/16 12:09:42;;;;;;;13.65;7.50;;;10.00;99.90;;;;;;5001608;28;20191;-42
2023/12/16 12:12:10;;;;;;;12.38;6.85;;;10.00;99.90;;;;;;5001222;28;20242;-42
2023/12/16 12:14:46;;;;;;;12.77;7.38;;;10.00;99.90;;;;;;5000704;28;20181;-48
2023/12/16 12:17:13;;;;;;;11.63;7.50;;;10.00;99.90;;;;;;5000934;28;20184;-42
2023/12/16 12:19:42;;;;;;;10.57;6.47;;;10.00;99.90;;;;;;5002031;28;20227;-45
2023/12/16 12:22:08;;;;;;;16.10;7.43;;;10.00;99.90;;;;;;5001115;28;20203;-43
2023/12/16 12:24:33;;;;;;;14.13;7.55;;;10.00;99.90;;;;;;5000711;28;20189;-44
2023/12/16 12:26:59;;;;;;;14.93;7.28;;;10.10;99.90;;;;;;5000428;28;20216;-42
2023/12/16 12:29:25;;;;;;;13.80;6.90;;;10.00;99.90;;;;;;5000954;28;20232;-41
2023/12/16 12:31:52;;;;;;;14.43;7.40;;;10.10;99.90;;;;;;4998175;28;20200;-42
2023/12/16 12:34:18;;;;;;;12.68;6.93;;;10.10;99.90;;;;;;5003238;28;20188;-41
2023/12/16 12:36:46;;;;;;;13.00;6.53;;;10.10;99.90;;;;;;5001268;28;20610;-44
2023/12/16 12:39:17;;;;;;;11.63;6.72;;;10.10;99.90;;;;;;5001677;28;20261;-46
2023/12/16 12:41:43;;;;;;;12.13;7.13;;;10.10;99.90;;;;;;5000589;28;20192;-41